sensor_id;sensor_type;location;lat;lon;timestamp;pressure;altitude;pressure_sealevel;temperature;humidity
24962;BME280;12992;50.884;13.668;2023-02-28T00:01:25;98391.81;;;-2.51;100.00
24962;BME280;12992;50.884;13.668;2023-02-28T00:03:50;98381.72;;;-2.58;100.00
24962;BME280;12992;50.884;13.668;2023-02-28T00:06:16;98395.31;;;-2.51;100.00
24962;BME280;12992;50.884;13.668;2023-02-28T00:08:41;98410.06;;;-2.47;100.00
24962;BME280;12992;50.884;13.668;2023-02-28T00:11:10;98425.28;;;-2.30;100.00
24962;BME280;12992;50.884;13.668;2023-02-28T00:13:38;98448.34;;;-2.11;100.00
24962;BME280;12992;50.884;13.668;2023-02-28T00:16:06;98441.19;;;-2.10;100.00
24962;BME280;12992;50.884;13.668;2023-02-28T00:18:32;98425.91;;;-2.18;100.00
24962;BME280;12992;50.884;13.668;2023-02-28T00:20:57;98445.06;;;-2.05;100.00
24962;BME280;12992;50.884;13.668;2023-02-28T00:23:23;98427.00;;;-2.11;100.00
24962;BME280;12992;50.884;13.668;2023-02-28T00:25:48;98414.09;;;-2.15;100.00
24962;BME280;12992;50.884;13.668;2023-02-28T00:28:14;98426.69;;;-2.08;100.00
24962;BME280;12992;50.884;13.668;2023-02-28T00:30:39;98418.00;;;-2.10;100.00
24962;BME280;12992;50.884;13.668;2023-02-28T00:33:04;98403.56;;;-2.17;100.00
24962;BME280;12992;50.884;13.668;2023-02-28T00:35:30;98393.78;;;-2.26;100.00
24962;BME280;12992;50.884;13.668;2023-02-28T00:37:55;98397.84;;;-2.22;100.00
24962;BME280;12992;50.884;13.668;2023-02-28T00:40:20;98408.22;;;-2.19;100.00
24962;BME280;12992;50.884;13.668;2023-02-28T00:42:46;98411.00;;;-2.11;100.00
24962;BME280;12992;50.884;13.668;2023-02-28T00:45:11;98369.28;;;-2.39;100.00
24962;BME280;12992;50.884;13.668;2023-02-28T00:47:37;98369.59;;;-2.42;100.00
24962;BME280;12992;50.884;13.668;2023-02-28T00:50:03;98391.72;;;-2.32;100.00
24962;BME280;12992;50.884;13.668;2023-02-28T00:52:28;98389.72;;;-2.30;100.00
24962;BME280;12992;50.884;13.668;2023-02-28T00:54:54;98390.44;;;-2.28;100.00
24962;BME280;12992;50.884;13.668;2023-02-28T00:57:19;98373.25;;;-2.43;100.00
24962;BME280;12992;50.884;13.668;2023-02-28T00:59:45;98382.78;;;-2.41;100.00
24962;BME280;12992;50.884;13.668;2023-02-28T01:02:10;98378.28;;;-2.40;100.00
24962;BME280;12992;50.884;13.668;2023-02-28T01:04:36;98385.28;;;-2.39;100.00
24962;BME280;12992;50.884;13.668;2023-02-28T01:07:01;98366.13;;;-2.52;100.00
24962;BME280;12992;50.884;13.668;2023-02-28T01:09:27;98369.47;;;-2.50;100.00
24962;BME280;12992;50.884;13.668;2023-02-28T01:11:52;98348.94;;;-2.68;100.00
24962;BME280;12992;50.884;13.668;2023-02-28T01:14:18;98361.00;;;-2.64;100.00
24962;BME280;12992;50.884;13.668;2023-02-28T01:16:44;98345.03;;;-2.73;100.00
24962;BME280;12992;50.884;13.668;2023-02-28T01:19:10;98326.31;;;-2.91;100.00
24962;BME280;12992;50.884;13.668;2023-02-28T01:21:37;98317.59;;;-2.93;100.00
24962;BME280;12992;50.884;13.668;2023-02-28T01:24:04;98308.13;;;-3.05;100.00
24962;BME280;12992;50.884;13.668;2023-02-28T01:26:30;98298.88;;;-3.11;100.00
24962;BME280;12992;50.884;13.668;2023-02-28T01:28:56;98297.50;;;-3.15;100.00
24962;BME280;12992;50.884;13.668;2023-02-28T01:31:22;98313.75;;;-3.08;100.00
24962;BME280;12992;50.884;13.668;2023-02-28T01:33:48;98335.88;;;-2.98;100.00
24962;BME280;12992;50.884;13.668;2023-02-28T01:36:17;98300.56;;;-3.10;100.00
24962;BME280;12992;50.884;13.668;2023-02-28T01:38:43;98280.28;;;-3.30;100.00
24962;BME280;12992;50.884;13.668;2023-02-28T01:41:14;98286.34;;;-3.38;100.00
24962;BME280;12992;50.884;13.668;2023-02-28T01:46:08;98311.00;;;-3.26;100.00
24962;BME280;12992;50.884;13.668;2023-02-28T01:48:37;98325.28;;;-3.18;100.00
24962;BME280;12992;50.884;13.668;2023-02-28T01:51:11;98331.84;;;-3.12;100.00
24962;BME280;12992;50.884;13.668;2023-02-28T01:53:42;98342.47;;;-3.02;100.00
24962;BME280;12992;50.884;13.668;2023-02-28T01:56:11;98347.38;;;-2.98;100.00
24962;BME280;12992;50.884;13.668;2023-02-28T01:58:39;98350.56;;;-2.94;100.00
24962;BME280;12992;50.884;13.668;2023-02-28T02:01:05;98337.97;;;-3.02;100.00
24962;BME280;12992;50.884;13.668;2023-02-28T02:03:31;98345.38;;;-2.96;100.00
24962;BME280;12992;50.884;13.668;2023-02-28T02:05:57;98364.84;;;-2.86;100.00
24962;BME280;12992;50.884;13.668;2023-02-28T02:08:24;98349.34;;;-3.00;100.00
24962;BME280;12992;50.884;13.668;2023-02-28T02:10:52;98363.72;;;-2.83;100.00
24962;BME280;12992;50.884;13.668;2023-02-28T02:13:33;98351.69;;;-2.87;100.00
24962;BME280;12992;50.884;13.668;2023-02-28T02:18:57;98366.94;;;-2.79;100.00
24962;BME280;12992;50.884;13.668;2023-02-28T02:21:44;98354.03;;;-2.84;100.00
24962;BME280;12992;50.884;13.668;2023-02-28T02:27:18;98355.44;;;-2.80;100.00
24962;BME280;12992;50.884;13.668;2023-02-28T02:33:02;98338.50;;;-2.89;100.00
24962;BME280;12992;50.884;13.668;2023-02-28T02:36:23;98338.50;;;-2.89;100.00
24962;BME280;12992;50.884;13.668;2023-02-28T02:41:14;98308.41;;;-3.08;100.00
24962;BME280;12992;50.884;13.668;2023-02-28T02:44:02;98324.09;;;-3.05;100.00
24962;BME280;12992;50.884;13.668;2023-02-28T02:46:34;98314.88;;;-3.11;100.00
24962;BME280;12992;50.884;13.668;2023-02-28T02:49:03;98336.44;;;-3.04;100.00
24962;BME280;12992;50.884;13.668;2023-02-28T02:51:32;98349.88;;;-2.96;100.00
24962;BME280;12992;50.884;13.668;2023-02-28T02:54:13;98341.34;;;-3.00;100.00
24962;BME280;12992;50.884;13.668;2023-02-28T02:56:43;98345.38;;;-2.96;100.00
24962;BME280;12992;50.884;13.668;2023-02-28T02:59:13;98361.66;;;-2.89;100.00
24962;BME280;12992;50.884;13.668;2023-02-28T03:01:40;98332.53;;;-3.00;100.00
24962;BME280;12992;50.884;13.668;2023-02-28T03:04:11;98331.41;;;-3.07;100.00
24962;BME280;12992;50.884;13.668;2023-02-28T03:06:38;98321.47;;;-3.15;100.00
24962;BME280;12992;50.884;13.668;2023-02-28T03:09:04;98318.81;;;-3.15;100.00
24962;BME280;12992;50.884;13.668;2023-02-28T03:11:30;98299.50;;;-3.27;100.00
24962;BME280;12992;50.884;13.668;2023-02-28T03:14:10;98287.59;;;-3.32;100.00
24962;BME280;12992;50.884;13.668;2023-02-28T03:16:47;98296.72;;;-3.35;100.00
24962;BME280;12992;50.884;13.668;2023-02-28T03:19:46;98284.28;;;-3.44;100.00
24962;BME280;12992;50.884;13.668;2023-02-28T03:22:34;98292.81;;;-3.40;100.00
24962;BME280;12992;50.884;13.668;2023-02-28T03:25:23;98289.47;;;-3.43;100.00
24962;BME280;12992;50.884;13.668;2023-02-28T03:28:05;98281.19;;;-3.49;100.00
24962;BME280;12992;50.884;13.668;2023-02-28T03:30:39;98249.69;;;-3.63;100.00
24962;BME280;12992;50.884;13.668;2023-02-28T03:33:18;98266.78;;;-3.66;100.00
24962;BME280;12992;50.884;13.668;2023-02-28T03:35:53;98251.69;;;-3.75;100.00
24962;BME280;12992;50.884;13.668;2023-02-28T03:41:26;98273.25;;;-3.68;100.00
24962;BME280;12992;50.884;13.668;2023-02-28T03:43:58;98237.97;;;-3.90;100.00
24962;BME280;12992;50.884;13.668;2023-02-28T03:46:27;98239.94;;;-3.92;100.00
24962;BME280;12992;50.884;13.668;2023-02-28T03:48:55;98256.47;;;-3.88;100.00
24962;BME280;12992;50.884;13.668;2023-02-28T03:51:23;98256.88;;;-3.93;100.00
24962;BME280;12992;50.884;13.668;2023-02-28T03:53:53;98237.59;;;-4.05;100.00
24962;BME280;12992;50.884;13.668;2023-02-28T03:56:31;98238.00;;;-4.09;100.00
24962;BME280;12992;50.884;13.668;2023-02-28T03:59:05;98235.06;;;-4.16;100.00
24962;BME280;12992;50.884;13.668;2023-02-28T04:01:38;98242.91;;;-4.14;100.00
24962;BME280;12992;50.884;13.668;2023-02-28T04:04:07;98284.78;;;-3.97;100.00
24962;BME280;12992;50.884;13.668;2023-02-28T04:06:33;98283.06;;;-3.98;100.00
24962;BME280;12992;50.884;13.668;2023-02-28T04:08:59;98321.59;;;-3.83;100.00
24962;BME280;12992;50.884;13.668;2023-02-28T04:11:33;98311.38;;;-3.78;100.00
24962;BME280;12992;50.884;13.668;2023-02-28T04:14:00;98315.84;;;-3.78;100.00
24962;BME280;12992;50.884;13.668;2023-02-28T04:16:26;98336.84;;;-3.65;100.00
24962;BME280;12992;50.884;13.668;2023-02-28T04:18:51;98326.22;;;-3.75;100.00
24962;BME280;12992;50.884;13.668;2023-02-28T04:21:16;98321.72;;;-3.75;100.00
24962;BME280;12992;50.884;13.668;2023-02-28T04:23:45;98330.69;;;-3.76;100.00
24962;BME280;12992;50.884;13.668;2023-02-28T04:26:11;98308.41;;;-3.84;100.00
24962;BME280;12992;50.884;13.668;2023-02-28T04:28:37;98323.69;;;-3.77;100.00
24962;BME280;12992;50.884;13.668;2023-02-28T04:31:04;98288.97;;;-3.94;100.00
24962;BME280;12992;50.884;13.668;2023-02-28T04:33:31;98277.75;;;-3.98;100.00
24962;BME280;12992;50.884;13.668;2023-02-28T04:36:01;98276.78;;;-4.07;100.00
24962;BME280;12992;50.884;13.668;2023-02-28T04:38:28;98250.91;;;-4.24;100.00
24962;BME280;12992;50.884;13.668;2023-02-28T04:40:53;98234.91;;;-4.43;100.00
24962;BME280;12992;50.884;13.668;2023-02-28T04:43:19;98243.31;;;-4.48;100.00
24962;BME280;12992;50.884;13.668;2023-02-28T04:45:44;98257.03;;;-4.43;100.00
24962;BME280;12992;50.884;13.668;2023-02-28T04:48:09;98237.72;;;-4.54;100.00
24962;BME280;12992;50.884;13.668;2023-02-28T04:50:35;98215.59;;;-4.74;100.00
24962;BME280;12992;50.884;13.668;2023-02-28T04:53:00;98231.53;;;-4.74;100.00
24962;BME280;12992;50.884;13.668;2023-02-28T04:55:25;98229.88;;;-4.75;100.00
24962;BME280;12992;50.884;13.668;2023-02-28T04:57:50;98257.84;;;-4.62;100.00
24962;BME280;12992;50.884;13.668;2023-02-28T05:00:16;98254.78;;;-4.67;100.00
24962;BME280;12992;50.884;13.668;2023-02-28T05:02:42;98240.75;;;-4.78;100.00
24962;BME280;12992;50.884;13.668;2023-02-28T05:05:07;98210.81;;;-4.90;100.00
24962;BME280;12992;50.884;13.668;2023-02-28T05:07:33;98210.94;;;-5.01;100.00
24962;BME280;12992;50.884;13.668;2023-02-28T05:09:58;98202.94;;;-5.11;100.00
24962;BME280;12992;50.884;13.668;2023-02-28T05:12:23;98194.81;;;-5.19;100.00
24962;BME280;12992;50.884;13.668;2023-02-28T05:14:49;98186.38;;;-5.34;100.00
24962;BME280;12992;50.884;13.668;2023-02-28T05:17:14;98157.50;;;-5.58;100.00
24962;BME280;12992;50.884;13.668;2023-02-28T05:19:39;98144.88;;;-5.75;100.00
24962;BME280;12992;50.884;13.668;2023-02-28T05:22:13;98148.47;;;-5.86;100.00
24962;BME280;12992;50.884;13.668;2023-02-28T05:24:39;98159.91;;;-5.85;100.00
24962;BME280;12992;50.884;13.668;2023-02-28T05:27:04;98136.69;;;-6.03;99.79
24962;BME280;12992;50.884;13.668;2023-02-28T05:29:30;98108.91;;;-6.29;100.00
24962;BME280;12992;50.884;13.668;2023-02-28T05:31:55;98100.84;;;-6.48;99.84
24962;BME280;12992;50.884;13.668;2023-02-28T05:34:20;98099.38;;;-6.62;98.95
24962;BME280;12992;50.884;13.668;2023-02-28T05:36:45;98108.53;;;-6.66;98.98
24962;BME280;12992;50.884;13.668;2023-02-28T05:39:11;98102.72;;;-6.81;99.31
24962;BME280;12992;50.884;13.668;2023-02-28T05:41:39;98113.56;;;-6.84;100.00
24962;BME280;12992;50.884;13.668;2023-02-28T05:44:05;98099.53;;;-6.96;99.37
24962;BME280;12992;50.884;13.668;2023-02-28T05:46:30;98102.56;;;-7.00;100.00
24962;BME280;12992;50.884;13.668;2023-02-28T05:48:55;98111.47;;;-7.01;100.00
24962;BME280;12992;50.884;13.668;2023-02-28T05:51:22;98083.88;;;-7.20;100.00
24962;BME280;12992;50.884;13.668;2023-02-28T05:53:48;98119.34;;;-7.11;100.00
24962;BME280;12992;50.884;13.668;2023-02-28T05:56:14;98113.69;;;-7.18;100.00
24962;BME280;12992;50.884;13.668;2023-02-28T05:58:39;98121.91;;;-7.21;100.00
24962;BME280;12992;50.884;13.668;2023-02-28T06:01:35;98110.84;;;-7.26;100.00
24962;BME280;12992;50.884;13.668;2023-02-28T06:04:02;98099.31;;;-7.36;100.00
24962;BME280;12992;50.884;13.668;2023-02-28T06:06:28;98110.38;;;-7.42;100.00
24962;BME280;12992;50.884;13.668;2023-02-28T06:08:54;98133.59;;;-7.34;100.00
24962;BME280;12992;50.884;13.668;2023-02-28T06:11:20;98156.44;;;-7.22;100.00
24962;BME280;12992;50.884;13.668;2023-02-28T06:13:45;98175.28;;;-7.16;100.00
24962;BME280;12992;50.884;13.668;2023-02-28T06:16:11;98221.34;;;-6.96;100.00
24962;BME280;12992;50.884;13.668;2023-02-28T06:18:36;98207.50;;;-6.99;100.00
24962;BME280;12992;50.884;13.668;2023-02-28T06:21:02;98255.38;;;-6.80;100.00
24962;BME280;12992;50.884;13.668;2023-02-28T06:23:27;98264.69;;;-6.65;100.00
24962;BME280;12992;50.884;13.668;2023-02-28T06:25:53;98266.63;;;-6.67;100.00
24962;BME280;12992;50.884;13.668;2023-02-28T06:28:18;98277.72;;;-6.62;100.00
24962;BME280;12992;50.884;13.668;2023-02-28T06:30:44;98297.31;;;-6.53;100.00
24962;BME280;12992;50.884;13.668;2023-02-28T06:33:09;98324.84;;;-6.33;100.00
24962;BME280;12992;50.884;13.668;2023-02-28T06:35:35;98304.38;;;-6.42;100.00
24962;BME280;12992;50.884;13.668;2023-02-28T06:38:00;98305.34;;;-6.43;100.00
24962;BME280;12992;50.884;13.668;2023-02-28T06:40:25;98301.59;;;-6.41;100.00
24962;BME280;12992;50.884;13.668;2023-02-28T06:42:51;98340.44;;;-6.19;100.00
24962;BME280;12992;50.884;13.668;2023-02-28T06:45:17;98345.94;;;-6.11;100.00
24962;BME280;12992;50.884;13.668;2023-02-28T06:47:42;98338.25;;;-6.14;100.00
24962;BME280;12992;50.884;13.668;2023-02-28T06:50:10;98316.00;;;-6.22;100.00
24962;BME280;12992;50.884;13.668;2023-02-28T06:52:36;98333.22;;;-6.17;100.00
24962;BME280;12992;50.884;13.668;2023-02-28T06:55:04;98369.81;;;-6.00;100.00
24962;BME280;12992;50.884;13.668;2023-02-28T06:57:29;98404.34;;;-5.69;100.00
24962;BME280;12992;50.884;13.668;2023-02-28T06:59:59;98437.53;;;-5.43;99.73
24962;BME280;12992;50.884;13.668;2023-02-28T07:02:25;98450.91;;;-5.12;98.89
24962;BME280;12992;50.884;13.668;2023-02-28T07:04:51;98436.25;;;-5.06;98.68
24962;BME280;12992;50.884;13.668;2023-02-28T07:07:16;98413.00;;;-5.14;97.40
24962;BME280;12992;50.884;13.668;2023-02-28T07:09:41;98418.34;;;-5.04;96.30
24962;BME280;12992;50.884;13.668;2023-02-28T07:12:07;98406.69;;;-5.13;96.45
24962;BME280;12992;50.884;13.668;2023-02-28T07:14:32;98426.66;;;-4.98;95.13
24962;BME280;12992;50.884;13.668;2023-02-28T07:16:57;98457.56;;;-4.76;94.76
24962;BME280;12992;50.884;13.668;2023-02-28T07:19:23;98476.69;;;-4.51;94.50
24962;BME280;12992;50.884;13.668;2023-02-28T07:21:48;98459.63;;;-4.49;94.66
24962;BME280;12992;50.884;13.668;2023-02-28T07:24:14;98498.09;;;-4.22;92.97
24962;BME280;12992;50.884;13.668;2023-02-28T07:26:41;98498.44;;;-4.06;91.53
24962;BME280;12992;50.884;13.668;2023-02-28T07:29:06;98512.06;;;-3.80;89.29
24962;BME280;12992;50.884;13.668;2023-02-28T07:31:32;98528.84;;;-3.49;89.06
24962;BME280;12992;50.884;13.668;2023-02-28T07:33:57;98529.00;;;-3.31;87.43
24962;BME280;12992;50.884;13.668;2023-02-28T07:36:23;98549.91;;;-2.98;87.15
24962;BME280;12992;50.884;13.668;2023-02-28T07:38:48;98492.16;;;-3.26;86.00
24962;BME280;12992;50.884;13.668;2023-02-28T07:41:20;98547.78;;;-2.85;86.26
24962;BME280;12992;50.884;13.668;2023-02-28T07:43:46;98523.66;;;-2.93;85.46
24962;BME280;12992;50.884;13.668;2023-02-28T07:46:13;98528.88;;;-2.81;85.91
24962;BME280;12992;50.884;13.668;2023-02-28T07:48:43;98563.91;;;-2.57;86.25
24962;BME280;12992;50.884;13.668;2023-02-28T07:51:09;98570.50;;;-2.42;85.29
24962;BME280;12992;50.884;13.668;2023-02-28T07:53:35;98573.25;;;-2.24;86.79
24962;BME280;12992;50.884;13.668;2023-02-28T07:56:01;98581.63;;;-2.00;86.28
24962;BME280;12992;50.884;13.668;2023-02-28T07:58:28;98626.03;;;-1.61;86.41
24962;BME280;12992;50.884;13.668;2023-02-28T08:00:54;98572.66;;;-1.71;85.01
24962;BME280;12992;50.884;13.668;2023-02-28T08:03:21;98599.22;;;-1.42;83.85
24962;BME280;12992;50.884;13.668;2023-02-28T08:05:46;98613.19;;;-1.21;82.51
24962;BME280;12992;50.884;13.668;2023-02-28T08:08:13;98600.28;;;-1.07;83.40
24962;BME280;12992;50.884;13.668;2023-02-28T08:10:39;98616.66;;;-0.93;83.40
24962;BME280;12992;50.884;13.668;2023-02-28T08:13:04;98623.53;;;-0.72;82.92
24962;BME280;12992;50.884;13.668;2023-02-28T08:15:30;98574.88;;;-0.94;82.94
24962;BME280;12992;50.884;13.668;2023-02-28T08:17:55;98625.84;;;-0.60;83.60
24962;BME280;12992;50.884;13.668;2023-02-28T08:20:24;98661.19;;;-0.12;82.68
24962;BME280;12992;50.884;13.668;2023-02-28T08:22:50;98669.44;;;0.12;82.77
24962;BME280;12992;50.884;13.668;2023-02-28T08:25:15;98666.97;;;0.45;81.88
24962;BME280;12992;50.884;13.668;2023-02-28T08:27:40;98642.16;;;0.43;80.60
24962;BME280;12992;50.884;13.668;2023-02-28T08:30:06;98626.41;;;0.40;80.67
24962;BME280;12992;50.884;13.668;2023-02-28T08:32:33;98599.72;;;0.30;80.57
24962;BME280;12992;50.884;13.668;2023-02-28T08:34:58;98646.75;;;0.59;81.71
24962;BME280;12992;50.884;13.668;2023-02-28T08:37:24;98631.56;;;0.67;80.45
24962;BME280;12992;50.884;13.668;2023-02-28T08:39:49;98584.31;;;0.66;79.19
24962;BME280;12992;50.884;13.668;2023-02-28T08:42:15;98588.25;;;0.46;81.62
24962;BME280;12992;50.884;13.668;2023-02-28T08:44:40;98533.88;;;0.19;81.06
24962;BME280;12992;50.884;13.668;2023-02-28T08:47:06;98633.56;;;0.65;81.77
24962;BME280;12992;50.884;13.668;2023-02-28T08:49:31;98635.44;;;0.73;82.31
24962;BME280;12992;50.884;13.668;2023-02-28T08:51:57;98708.31;;;1.53;80.37
24962;BME280;12992;50.884;13.668;2023-02-28T08:54:23;98725.47;;;1.84;79.27
24962;BME280;12992;50.884;13.668;2023-02-28T08:56:49;98740.59;;;2.67;74.35
24962;BME280;12992;50.884;13.668;2023-02-28T08:59:14;98710.59;;;3.33;70.79
24962;BME280;12992;50.884;13.668;2023-02-28T09:01:40;98724.91;;;3.88;67.43
24962;BME280;12992;50.884;13.668;2023-02-28T09:04:07;98690.50;;;3.98;66.88
24962;BME280;12992;50.884;13.668;2023-02-28T09:06:34;98764.97;;;5.12;64.44
24962;BME280;12992;50.884;13.668;2023-02-28T09:08:59;98793.25;;;6.05;62.72
24962;BME280;12992;50.884;13.668;2023-02-28T09:11:26;98766.06;;;6.34;60.53
24962;BME280;12992;50.884;13.668;2023-02-28T09:13:51;98676.53;;;6.08;59.63
24962;BME280;12992;50.884;13.668;2023-02-28T09:16:16;98734.03;;;6.87;57.41
24962;BME280;12992;50.884;13.668;2023-02-28T09:18:42;98750.25;;;7.15;57.86
24962;BME280;12992;50.884;13.668;2023-02-28T09:21:11;98685.44;;;7.14;56.95
24962;BME280;12992;50.884;13.668;2023-02-28T09:23:40;98697.56;;;7.18;57.22
24962;BME280;12992;50.884;13.668;2023-02-28T09:26:05;98764.00;;;8.84;55.01
24962;BME280;12992;50.884;13.668;2023-02-28T09:28:31;98727.81;;;8.83;53.55
24962;BME280;12992;50.884;13.668;2023-02-28T09:30:57;98738.47;;;8.91;53.79
24962;BME280;12992;50.884;13.668;2023-02-28T09:33:23;98603.34;;;8.07;53.10
24962;BME280;12992;50.884;13.668;2023-02-28T09:35:50;98537.75;;;7.31;54.70
24962;BME280;12992;50.884;13.668;2023-02-28T09:38:16;98367.22;;;4.11;59.53
24962;BME280;12992;50.884;13.668;2023-02-28T09:40:59;98341.34;;;3.22;62.83
24962;BME280;12992;50.884;13.668;2023-02-28T09:43:29;98380.09;;;2.98;65.45
24962;BME280;12992;50.884;13.668;2023-02-28T09:46:27;98331.00;;;2.35;66.92
24962;BME280;12992;50.884;13.668;2023-02-28T09:48:54;98355.78;;;2.22;67.07
24962;BME280;12992;50.884;13.668;2023-02-28T09:53:46;98545.63;;;3.62;65.93
24962;BME280;12992;50.884;13.668;2023-02-28T09:56:18;98477.97;;;3.57;62.98
24962;BME280;12992;50.884;13.668;2023-02-28T09:58:51;98668.75;;;5.40;61.81
24962;BME280;12992;50.884;13.668;2023-02-28T10:01:27;98704.16;;;7.02;57.71
24962;BME280;12992;50.884;13.668;2023-02-28T10:04:11;98621.81;;;7.44;54.69
24962;BME280;12992;50.884;13.668;2023-02-28T10:06:48;98733.63;;;8.34;55.19
24962;BME280;12992;50.884;13.668;2023-02-28T10:09:22;98599.78;;;8.27;52.22
24962;BME280;12992;50.884;13.668;2023-02-28T10:11:52;98568.88;;;7.75;51.62
24962;BME280;12992;50.884;13.668;2023-02-28T10:14:20;98665.19;;;8.58;51.94
24962;BME280;12992;50.884;13.668;2023-02-28T10:16:56;98691.97;;;9.39;51.07
24962;BME280;12992;50.884;13.668;2023-02-28T10:19:31;98561.19;;;7.98;52.75
24962;BME280;12992;50.884;13.668;2023-02-28T10:22:02;98573.69;;;8.39;51.65
24962;BME280;12992;50.884;13.668;2023-02-28T10:24:30;98661.63;;;9.42;50.68
24962;BME280;12992;50.884;13.668;2023-02-28T10:27:01;98479.38;;;8.01;50.57
24962;BME280;12992;50.884;13.668;2023-02-28T10:29:32;98549.69;;;7.63;53.00
24962;BME280;12992;50.884;13.668;2023-02-28T10:32:01;98540.53;;;7.97;52.49
24962;BME280;12992;50.884;13.668;2023-02-28T10:34:27;98496.28;;;7.50;52.53
24962;BME280;12992;50.884;13.668;2023-02-28T10:36:53;98483.50;;;7.04;54.20
24962;BME280;12992;50.884;13.668;2023-02-28T10:42:05;98484.97;;;7.07;53.24
24962;BME280;12992;50.884;13.668;2023-02-28T10:44:43;98437.44;;;6.91;52.98
24962;BME280;12992;50.884;13.668;2023-02-28T10:47:14;98652.22;;;8.47;53.69
24962;BME280;12992;50.884;13.668;2023-02-28T10:49:46;98610.75;;;8.98;51.03
24962;BME280;12992;50.884;13.668;2023-02-28T10:52:12;98556.34;;;8.60;50.27
24962;BME280;12992;50.884;13.668;2023-02-28T10:54:37;98636.88;;;9.57;50.55
24962;BME280;12992;50.884;13.668;2023-02-28T10:57:17;98640.75;;;9.74;49.29
24962;BME280;12992;50.884;13.668;2023-02-28T10:59:45;98655.06;;;10.76;48.32
24962;BME280;12992;50.884;13.668;2023-02-28T11:02:38;98550.81;;;9.38;49.36
24962;BME280;12992;50.884;13.668;2023-02-28T11:05:31;98541.50;;;9.52;49.51
24962;BME280;12992;50.884;13.668;2023-02-28T11:08:12;98571.19;;;9.85;49.06
24962;BME280;12992;50.884;13.668;2023-02-28T11:10:39;98616.25;;;10.37;48.55
24962;BME280;12992;50.884;13.668;2023-02-28T11:13:05;98659.06;;;10.98;49.36
24962;BME280;12992;50.884;13.668;2023-02-28T11:15:32;98502.44;;;9.71;49.86
24962;BME280;12992;50.884;13.668;2023-02-28T11:20:48;98539.25;;;9.74;49.79
24962;BME280;12992;50.884;13.668;2023-02-28T11:23:15;98456.69;;;9.05;48.77
24962;BME280;12992;50.884;13.668;2023-02-28T11:25:47;98464.28;;;8.90;50.53
24962;BME280;12992;50.884;13.668;2023-02-28T11:31:16;98339.13;;;7.17;52.41
24962;BME280;12992;50.884;13.668;2023-02-28T11:33:48;98453.28;;;8.13;51.81
24962;BME280;12992;50.884;13.668;2023-02-28T11:36:33;98435.91;;;8.21;50.78
24962;BME280;12992;50.884;13.668;2023-02-28T11:39:00;98394.94;;;7.78;50.74
24962;BME280;12992;50.884;13.668;2023-02-28T11:45:08;98389.53;;;6.92;54.45
24962;BME280;12992;50.884;13.668;2023-02-28T11:47:17;98387.69;;;7.25;53.33
24962;BME280;12992;50.884;13.668;2023-02-28T11:52:54;98451.63;;;7.92;52.70
24962;BME280;12992;50.884;13.668;2023-02-28T11:55:24;98437.88;;;7.67;54.62
24962;BME280;12992;50.884;13.668;2023-02-28T11:58:04;98416.41;;;7.66;53.60
24962;BME280;12992;50.884;13.668;2023-02-28T12:00:47;98287.19;;;6.41;54.66
24962;BME280;12992;50.884;13.668;2023-02-28T12:05:51;98375.38;;;6.90;54.71
24962;BME280;12992;50.884;13.668;2023-02-28T12:08:26;98303.81;;;6.24;55.54
24962;BME280;12992;50.884;13.668;2023-02-28T12:13:59;98356.16;;;6.78;54.09
24962;BME280;12992;50.884;13.668;2023-02-28T12:16:58;98247.66;;;5.72;55.31
24962;BME280;12992;50.884;13.668;2023-02-28T12:19:58;98283.78;;;5.23;57.12
24962;BME280;12992;50.884;13.668;2023-02-28T12:28:04;98376.16;;;5.40;60.08
24962;BME280;12992;50.884;13.668;2023-02-28T12:30:34;98284.03;;;5.00;58.80
24962;BME280;12992;50.884;13.668;2023-02-28T12:33:06;98246.41;;;4.21;61.64
24962;BME280;12992;50.884;13.668;2023-02-28T12:38:18;98361.56;;;5.06;61.33
24962;BME280;12992;50.884;13.668;2023-02-28T12:41:00;98418.75;;;5.66;61.39
24962;BME280;12992;50.884;13.668;2023-02-28T12:43:31;98400.97;;;5.85;59.24
24962;BME280;12992;50.884;13.668;2023-02-28T12:46:11;98422.63;;;6.19;57.86
24962;BME280;12992;50.884;13.668;2023-02-28T12:48:42;98372.81;;;6.07;56.65
24962;BME280;12992;50.884;13.668;2023-02-28T12:51:09;98343.75;;;5.81;58.57
24962;BME280;12992;50.884;13.668;2023-02-28T13:08:11;98235.78;;;4.35;61.72
24962;BME280;12992;50.884;13.668;2023-02-28T13:10:46;98271.75;;;4.42;61.28
24962;BME280;12992;50.884;13.668;2023-02-28T13:13:23;98260.94;;;4.42;60.54
24962;BME280;12992;50.884;13.668;2023-02-28T13:15:58;98261.31;;;4.39;60.54
24962;BME280;12992;50.884;13.668;2023-02-28T13:18:34;98276.97;;;4.50;59.91
24962;BME280;12992;50.884;13.668;2023-02-28T13:21:02;98190.06;;;3.62;62.02
24962;BME280;12992;50.884;13.668;2023-02-28T13:34:27;98197.25;;;3.40;61.72
24962;BME280;12992;50.884;13.668;2023-02-28T13:47:28;98232.75;;;3.15;63.14
24962;BME280;12992;50.884;13.668;2023-02-28T14:01:39;98221.34;;;3.12;64.66
24962;BME280;12992;50.884;13.668;2023-02-28T14:06:58;98281.66;;;3.62;65.16
24962;BME280;12992;50.884;13.668;2023-02-28T14:09:28;98217.91;;;3.19;66.71
24962;BME280;12992;50.884;13.668;2023-02-28T14:11:55;98205.19;;;2.98;68.17
24962;BME280;12992;50.884;13.668;2023-02-28T14:17:05;98231.16;;;3.05;68.63
24962;BME280;12992;50.884;13.668;2023-02-28T14:19:32;98222.16;;;2.98;68.44
24962;BME280;12992;50.884;13.668;2023-02-28T14:28:10;98235.44;;;2.85;69.74
24962;BME280;12992;50.884;13.668;2023-02-28T14:33:20;98241.84;;;2.99;70.69
24962;BME280;12992;50.884;13.668;2023-02-28T14:36:06;98186.97;;;2.55;72.09
24962;BME280;12992;50.884;13.668;2023-02-28T14:38:47;98214.34;;;2.59;70.89
24962;BME280;12992;50.884;13.668;2023-02-28T14:41:19;98199.59;;;2.40;71.01
24962;BME280;12992;50.884;13.668;2023-02-28T14:43:50;98180.59;;;2.19;71.09
24962;BME280;12992;50.884;13.668;2023-02-28T14:46:17;98201.00;;;2.28;71.25
24962;BME280;12992;50.884;13.668;2023-02-28T14:48:45;98194.03;;;2.19;70.32